Time;durP1;ratioP1;P1;durP2;ratioP2;P2;SDS_P1;SDS_P2;PMS_P1;PMS_P2;Temp;Humidity;BMP_temperature;BMP_pressure;BME280_temperature;BME280_humidity;BME280_pressure;Samples;Min_cycle;Max_cycle;Signal;HPM_P1;HPM_P2
2021/09/19 00:01:08;;;;;;;7.70;7.03;;;19.10;77.90;;;;;;4896713;29;20426;-67
2021/09/19 00:03:36;;;;;;;6.23;5.63;;;19.20;78.00;;;;;;4896663;29;20431;-67
2021/09/19 00:06:04;;;;;;;7.70;5.70;;;19.30;77.60;;;;;;4897292;29;20604;-70
2021/09/19 00:08:31;;;;;;;8.10;7.37;;;19.20;76.90;;;;;;4902465;29;20528;-69
2021/09/19 00:10:59;;;;;;;5.67;5.03;;;19.30;76.60;;;;;;4908544;29;20495;-66
2021/09/19 00:13:26;;;;;;;7.77;7.00;;;19.50;78.40;;;;;;4900841;29;20482;-68
2021/09/19 00:15:54;;;;;;;6.37;5.87;;;19.70;75.30;;;;;;4899241;29;20562;-70
2021/09/19 00:18:21;;;;;;;3.93;3.43;;;19.80;75.40;;;;;;4900893;29;20435;-79
2021/09/19 00:20:49;;;;;;;7.97;7.37;;;19.70;73.90;;;;;;4901345;29;20436;-73
2021/09/19 00:23:16;;;;;;;6.37;5.87;;;19.70;74.10;;;;;;4903851;29;20918;-74
2021/09/19 00:25:44;;;;;;;10.70;9.97;;;19.70;74.00;;;;;;4901061;29;20447;-78
2021/09/19 00:28:11;;;;;;;4.97;4.53;;;19.80;72.80;;;;;;4904493;29;20512;-78
2021/09/19 00:30:38;;;;;;;6.50;6.00;;;19.90;72.50;;;;;;4900726;29;20440;-76
2021/09/19 00:33:06;;;;;;;6.73;6.20;;;20.00;72.00;;;;;;4902788;29;20438;-77
2021/09/19 00:35:33;;;;;;;6.73;6.20;;;20.00;72.60;;;;;;4909823;29;20513;-77
2021/09/19 00:38:01;;;;;;;8.97;8.30;;;20.00;73.10;;;;;;4908609;29;20435;-82
2021/09/19 00:40:28;;;;;;;11.20;10.43;;;20.10;73.70;;;;;;4899148;29;21006;-79
2021/09/19 00:42:55;;;;;;;9.30;8.63;;;20.10;72.60;;;;;;4901307;29;20427;-76
2021/09/19 00:45:24;;;;;;;6.70;6.13;;;20.20;72.90;;;;;;4907839;29;20432;-83
2021/09/19 00:47:52;;;;;;;9.70;8.93;;;20.40;70.30;;;;;;4902703;29;20419;-74
2021/09/19 00:50:22;;;;;;;5.67;5.30;;;20.70;69.60;;;;;;4915883;29;20446;-77
2021/09/19 00:52:50;;;;;;;8.80;8.13;;;20.80;68.20;;;;;;4900968;29;20435;-77
2021/09/19 00:55:19;;;;;;;6.47;5.90;;;20.90;66.90;;;;;;4899042;29;20538;-74
2021/09/19 00:57:49;;;;;;;9.60;8.90;;;20.90;66.30;;;;;;4899692;29;20936;-79
2021/09/19 01:00:23;;;;;;;6.07;4.63;;;20.80;65.50;;;;;;4900754;29;20510;-84
2021/09/19 01:02:52;;;;;;;6.47;5.90;;;20.80;66.50;;;;;;4906638;29;20431;-81
2021/09/19 01:05:21;;;;;;;8.77;8.10;;;20.70;64.50;;;;;;4906525;29;20939;-79
2021/09/19 01:07:49;;;;;;;7.87;7.27;;;21.00;64.10;;;;;;4904173;29;20816;-79
2021/09/19 01:10:20;;;;;;;8.50;7.83;;;21.20;64.50;;;;;;4906831;29;20470;-83
2021/09/19 01:12:52;;;;;;;8.97;8.30;;;21.30;64.20;;;;;;4907934;29;20435;-78
2021/09/19 01:15:20;;;;;;;6.00;5.60;;;21.60;64.30;;;;;;4900140;29;20531;-80
2021/09/19 01:17:49;;;;;;;9.00;8.33;;;21.60;63.60;;;;;;4902466;29;20939;-76
2021/09/19 01:20:16;;;;;;;5.40;5.03;;;21.70;64.30;;;;;;4899099;29;20458;-85
2021/09/19 01:22:46;;;;;;;7.20;6.73;;;21.70;63.30;;;;;;4900737;29;20428;-79
2021/09/19 01:25:16;;;;;;;4.93;4.63;;;21.90;62.40;;;;;;4902257;29;20441;-77
2021/09/19 01:27:46;;;;;;;7.53;7.07;;;22.10;62.40;;;;;;4902569;29;20416;-75
2021/09/19 01:30:14;;;;;;;5.33;5.03;;;22.20;62.80;;;;;;4907238;29;20527;-82
2021/09/19 01:32:42;;;;;;;6.63;4.97;;;22.10;61.60;;;;;;4900028;29;20415;-77
2021/09/19 01:35:11;;;;;;;11.80;11.10;;;22.00;61.80;;;;;;4903204;29;20491;-80
2021/09/19 01:37:39;;;;;;;4.97;4.47;;;22.00;61.60;;;;;;4902408;29;20469;-75
2021/09/19 01:40:07;;;;;;;4.70;4.40;;;21.90;61.50;;;;;;4901208;29;20428;-75
2021/09/19 01:42:35;;;;;;;868.13;514.87;;;22.00;61.70;;;;;;4899154;29;20934;-73
2021/09/19 01:45:02;;;;;;;336.87;111.13;;;22.40;61.40;;;;;;4899668;29;20676;-71
2021/09/19 01:47:30;;;;;;;507.93;185.00;;;22.50;60.60;;;;;;4903377;29;20185;-74
2021/09/19 01:49:57;;;;;;;24.73;9.03;;;22.40;61.70;;;;;;4895405;29;20886;-73
2021/09/19 01:52:25;;;;;;;27.33;14.23;;;22.60;61.00;;;;;;4897389;29;20196;-74
2021/09/19 01:54:52;;;;;;;27.43;9.97;;;22.90;60.40;;;;;;4898694;29;20201;-71
2021/09/19 01:57:22;;;;;;;26.33;13.67;;;22.90;60.10;;;;;;4898402;29;20193;-74
2021/09/19 01:59:54;;;;;;;17.30;8.03;;;22.80;60.90;;;;;;4897948;29;20216;-77
2021/09/19 02:02:22;;;;;;;443.33;163.03;;;23.10;61.80;;;;;;4898974;29;20177;-74
2021/09/19 02:04:51;;;;;;;9.27;4.70;;;23.00;60.70;;;;;;4898912;29;20467;-71
2021/09/19 02:07:19;;;;;;;10.27;6.50;;;23.30;61.00;;;;;;4898837;29;20313;-74
2021/09/19 02:09:46;;;;;;;11.87;9.37;;;23.50;60.70;;;;;;4898077;29;20181;-75
2021/09/19 02:12:14;;;;;;;25.23;11.90;;;23.30;59.90;;;;;;4905718;29;20714;-80
2021/09/19 02:14:43;;;;;;;462.90;174.53;;;23.70;59.60;;;;;;4891980;29;20361;-73
2021/09/19 02:17:12;;;;;;;7.37;4.57;;;23.90;59.40;;;;;;4915296;29;20528;-72
2021/09/19 02:19:40;;;;;;;14.60;8.63;;;23.90;59.30;;;;;;4898754;29;20173;-73
2021/09/19 02:22:09;;;;;;;6.13;4.73;;;23.90;59.40;;;;;;4898520;29;20197;-75
2021/09/19 02:24:36;;;;;;;4.97;4.27;;;24.00;59.40;;;;;;4897866;29;20188;-75
2021/09/19 02:27:04;;;;;;;5.57;5.07;;;24.30;59.70;;;;;;4897900;29;20189;-75
2021/09/19 02:29:31;;;;;;;7.23;6.63;;;24.60;58.70;;;;;;4902838;29;20272;-76
2021/09/19 02:31:58;;;;;;;4.77;4.30;;;24.30;58.20;;;;;;4898520;29;20252;-73
2021/09/19 02:34:26;;;;;;;4.27;3.63;;;24.20;57.60;;;;;;4898780;29;20205;-75
2021/09/19 02:36:54;;;;;;;7.10;5.40;;;23.90;58.40;;;;;;4899574;29;20193;-74
2021/09/19 02:39:22;;;;;;;5.07;4.53;;;24.50;58.30;;;;;;4905058;29;20263;-73
2021/09/19 02:41:49;;;;;;;10.07;9.30;;;24.70;57.10;;;;;;4902319;29;20194;-68
2021/09/19 02:44:16;;;;;;;5.63;5.13;;;24.60;57.30;;;;;;4901775;29;20185;-75
2021/09/19 02:46:44;;;;;;;18.80;7.57;;;24.60;56.90;;;;;;4898827;29;20231;-79
2021/09/19 02:49:11;;;;;;;5.43;4.93;;;24.40;56.70;;;;;;4903329;29;20596;-73
2021/09/19 02:51:38;;;;;;;5.13;4.50;;;24.30;57.30;;;;;;4900850;29;20252;-73
2021/09/19 02:54:06;;;;;;;5.77;5.27;;;24.60;56.70;;;;;;4897055;29;20181;-75
2021/09/19 02:56:33;;;;;;;10.57;9.63;;;24.90;56.20;;;;;;4902019;29;20188;-78
2021/09/19 02:59:00;;;;;;;8.73;7.77;;;24.80;56.30;;;;;;4911580;29;20276;-73
2021/09/19 03:01:28;;;;;;;8.67;7.60;;;24.80;55.70;;;;;;4897898;29;20187;-78
2021/09/19 03:03:55;;;;;;;11.83;7.17;;;25.20;55.70;;;;;;4897661;29;20181;-76
2021/09/19 03:06:25;;;;;;;8.07;6.50;;;25.10;55.30;;;;;;4898184;29;20185;-69
2021/09/19 03:08:53;;;;;;;13.70;12.17;;;25.10;54.30;;;;;;4913523;29;20226;-72
2021/09/19 03:11:20;;;;;;;12.20;11.03;;;25.60;54.70;;;;;;4909913;29;20236;-72
2021/09/19 03:13:48;;;;;;;10.17;9.13;;;25.20;52.00;;;;;;4897380;29;20189;-75
2021/09/19 03:16:16;;;;;;;15.40;9.37;;;25.00;53.10;;;;;;4912172;29;20307;-76
2021/09/19 03:18:43;;;;;;;16.37;12.13;;;25.50;52.80;;;;;;4901757;29;20193;-68
2021/09/19 03:21:10;;;;;;;10.30;7.37;;;26.00;53.60;;;;;;4896960;29;20188;-73
2021/09/19 03:23:38;;;;;;;467.37;182.40;;;25.40;52.70;;;;;;4895442;29;21637;-70
2021/09/19 03:26:05;;;;;;;23.97;11.00;;;25.60;53.40;;;;;;4894770;29;20185;-66
2021/09/19 03:28:34;;;;;;;455.30;175.30;;;25.60;53.80;;;;;;4888899;29;20561;-67
2021/09/19 03:31:01;;;;;;;14.43;7.97;;;26.10;52.50;;;;;;4901152;29;20208;-73
2021/09/19 03:33:28;;;;;;;487.27;191.47;;;26.10;52.50;;;;;;4901295;29;20799;-67
2021/09/19 03:35:56;;;;;;;475.30;184.77;;;26.00;52.10;;;;;;4905598;29;20264;-71
2021/09/19 03:38:23;;;;;;;22.30;10.53;;;26.30;51.40;;;;;;4896990;29;20185;-66
2021/09/19 03:40:51;;;;;;;513.00;200.57;;;26.10;52.60;;;;;;4901988;29;20272;-68
2021/09/19 03:43:18;;;;;;;531.77;207.17;;;26.20;51.80;;;;;;4902315;29;20181;-68
2021/09/19 03:45:45;;;;;;;530.93;204.17;;;26.30;51.50;;;;;;4902726;29;20192;-68
2021/09/19 03:48:13;;;;;;;299.23;107.97;;;26.30;51.90;;;;;;4908569;29;20180;-76
2021/09/19 03:50:40;;;;;;;504.67;195.67;;;26.20;51.80;;;;;;4915483;29;20268;-76
2021/09/19 03:53:07;;;;;;;715.30;285.27;;;26.50;51.60;;;;;;4899394;29;20188;-68
2021/09/19 03:55:35;;;;;;;482.13;190.63;;;26.20;51.30;;;;;;4898864;29;20221;-67
2021/09/19 03:58:02;;;;;;;25.90;9.43;;;26.30;51.10;;;;;;4895551;29;20185;-73
2021/09/19 04:00:30;;;;;;;495.10;196.17;;;26.40;51.00;;;;;;4900601;29;20181;-72
2021/09/19 04:02:57;;;;;;;517.63;197.17;;;26.50;51.10;;;;;;4896264;29;20532;-68
2021/09/19 04:05:24;;;;;;;503.43;194.43;;;26.60;51.70;;;;;;4898985;29;20622;-66
2021/09/19 04:07:52;;;;;;;348.43;131.97;;;26.60;51.20;;;;;;4895334;29;20177;-72
2021/09/19 04:10:19;;;;;;;518.10;207.70;;;27.30;51.20;;;;;;4895513;29;20220;-68
2021/09/19 04:12:46;;;;;;;521.17;202.73;;;27.10;49.90;;;;;;4896527;29;20622;-74
2021/09/19 04:15:14;;;;;;;522.37;205.67;;;27.10;50.30;;;;;;4895033;29;20273;-69
2021/09/19 04:17:42;;;;;;;521.50;206.37;;;27.00;50.50;;;;;;4896577;29;20194;-73
2021/09/19 04:20:10;;;;;;;543.40;216.97;;;26.90;51.00;;;;;;4895968;29;20177;-69
2021/09/19 04:22:38;;;;;;;536.60;209.60;;;26.70;50.30;;;;;;4895405;29;20653;-72
2021/09/19 04:25:07;;;;;;;546.93;212.80;;;26.60;49.80;;;;;;4894920;29;20190;-68
2021/09/19 04:27:35;;;;;;;548.30;218.50;;;26.80;50.60;;;;;;4889660;29;20208;-70
2021/09/19 04:30:03;;;;;;;351.73;132.90;;;26.70;50.50;;;;;;4896045;29;20181;-73
2021/09/19 04:32:30;;;;;;;769.17;317.77;;;26.50;50.30;;;;;;4896335;29;20194;-67
2021/09/19 04:34:58;;;;;;;116.37;38.03;;;27.00;50.80;;;;;;4896120;29;20228;-71
2021/09/19 04:37:25;;;;;;;554.57;214.67;;;27.00;50.30;;;;;;4895962;29;20181;-73
2021/09/19 04:39:53;;;;;;;737.53;296.10;;;27.20;49.80;;;;;;4895549;29;20196;-75
2021/09/19 04:42:22;;;;;;;495.03;199.80;;;27.00;49.20;;;;;;4894928;29;20185;-74
2021/09/19 04:44:51;;;;;;;523.87;206.77;;;27.20;49.90;;;;;;4898283;29;20193;-72
2021/09/19 04:47:18;;;;;;;522.17;208.70;;;27.70;49.60;;;;;;4895312;29;20304;-73
2021/09/19 04:49:46;;;;;;;524.03;216.80;;;28.10;48.70;;;;;;4901270;29;20652;-75
2021/09/19 04:52:14;;;;;;;528.00;210.30;;;27.80;48.80;;;;;;4895618;29;20196;-73
2021/09/19 04:54:41;;;;;;;767.43;316.07;;;27.80;49.00;;;;;;4897752;29;20573;-73
2021/09/19 04:57:08;;;;;;;538.10;217.30;;;27.80;49.30;;;;;;4898995;29;20201;-67
2021/09/19 04:59:37;;;;;;;779.60;331.90;;;27.90;49.10;;;;;;4899319;29;20189;-74
2021/09/19 05:02:05;;;;;;;539.70;229.37;;;28.40;48.90;;;;;;4898347;29;20193;-70
2021/09/19 05:04:33;;;;;;;515.97;211.47;;;28.60;49.00;;;;;;4897266;29;20532;-70
2021/09/19 05:07:00;;;;;;;323.73;128.17;;;29.00;48.50;;;;;;4900374;29;20197;-67
2021/09/19 05:09:28;;;;;;;282.63;109.63;;;28.70;48.40;;;;;;4900162;29;20293;-73
2021/09/19 05:11:55;;;;;;;494.73;204.00;;;28.70;48.10;;;;;;4901889;29;20696;-70
2021/09/19 05:14:22;;;;;;;305.00;122.30;;;28.50;48.50;;;;;;4898712;29;20228;-71
2021/09/19 05:16:50;;;;;;;332.57;131.13;;;28.10;49.00;;;;;;4898500;29;20201;-69
2021/09/19 05:19:17;;;;;;;724.47;298.67;;;28.30;48.90;;;;;;4898928;29;20185;-81
2021/09/19 05:21:44;;;;;;;512.50;213.77;;;28.20;48.00;;;;;;4900031;29;20562;-74
2021/09/19 05:24:12;;;;;;;493.50;194.57;;;28.50;48.40;;;;;;4897713;29;20656;-78
2021/09/19 05:26:39;;;;;;;482.10;196.57;;;28.70;47.70;;;;;;4901760;29;20193;-72
2021/09/19 05:29:07;;;;;;;483.03;199.27;;;28.00;47.80;;;;;;4903119;29;20185;-76
2021/09/19 05:31:34;;;;;;;487.37;196.73;;;28.40;48.00;;;;;;4893607;29;20209;-70
2021/09/19 05:34:03;;;;;;;485.00;201.07;;;28.60;48.20;;;;;;4898792;29;20190;-72
2021/09/19 05:36:31;;;;;;;486.27;195.43;;;28.20;47.50;;;;;;4895189;29;20225;-70
2021/09/19 05:38:59;;;;;;;492.13;200.83;;;28.10;48.10;;;;;;4898379;29;20185;-75
2021/09/19 05:41:26;;;;;;;769.93;336.67;;;28.10;48.60;;;;;;4897039;29;20589;-75
2021/09/19 05:43:53;;;;;;;801.97;355.27;;;28.30;48.80;;;;;;4899345;29;21749;-73
2021/09/19 05:46:21;;;;;;;563.33;241.73;;;28.40;48.80;;;;;;4911040;29;20651;-73
2021/09/19 05:48:48;;;;;;;810.23;347.83;;;28.30;48.10;;;;;;4901255;29;20268;-77
2021/09/19 05:51:15;;;;;;;533.20;217.43;;;27.60;47.90;;;;;;4899300;29;20182;-78
2021/09/19 05:53:43;;;;;;;529.90;217.43;;;27.30;48.30;;;;;;4911660;29;20181;-73
2021/09/19 05:56:10;;;;;;;750.77;315.00;;;27.30;48.40;;;;;;4899735;29;20224;-74
2021/09/19 05:58:37;;;;;;;514.13;203.50;;;27.50;49.10;;;;;;4897409;29;20192;-73
2021/09/19 06:01:05;;;;;;;519.87;208.50;;;27.70;48.30;;;;;;4898348;29;20559;-75
2021/09/19 06:03:32;;;;;;;730.53;298.83;;;27.80;48.20;;;;;;4903733;29;20718;-78
2021/09/19 06:05:59;;;;;;;518.80;213.20;;;27.70;47.50;;;;;;4906832;29;20176;-76
2021/09/19 06:08:27;;;;;;;554.80;233.00;;;27.30;46.90;;;;;;4915646;29;20260;-76
2021/09/19 06:10:54;;;;;;;567.53;237.27;;;27.60;46.60;;;;;;4914276;29;20727;-73
2021/09/19 06:13:21;;;;;;;385.40;157.33;;;27.40;46.30;;;;;;4906321;29;20183;-77
2021/09/19 06:15:49;;;;;;;789.77;339.20;;;27.70;46.30;;;;;;4896318;29;20767;-74
2021/09/19 06:18:16;;;;;;;799.17;334.77;;;27.50;45.80;;;;;;4897067;29;20184;-76
2021/09/19 06:20:43;;;;;;;817.07;343.57;;;27.30;46.30;;;;;;4910177;29;20268;-78
2021/09/19 06:23:11;;;;;;;805.03;331.33;;;27.20;45.90;;;;;;4898745;29;20276;-78
2021/09/19 06:25:38;;;;;;;531.83;208.50;;;27.20;45.30;;;;;;4897550;29;20672;-76
2021/09/19 06:28:06;;;;;;;341.70;134.10;;;27.20;45.10;;;;;;4899611;29;20193;-77
2021/09/19 06:30:33;;;;;;;512.13;201.47;;;26.50;45.20;;;;;;4910888;29;20244;-74
2021/09/19 06:33:00;;;;;;;331.87;126.53;;;26.80;45.50;;;;;;4899528;29;20182;-76
2021/09/19 06:35:28;;;;;;;495.67;195.10;;;26.90;45.60;;;;;;4900733;29;20578;-79
2021/09/19 06:37:55;;;;;;;22.47;8.40;;;26.80;45.40;;;;;;4905677;29;20181;-73
2021/09/19 06:40:22;;;;;;;305.70;128.37;;;26.40;45.90;;;;;;4897944;29;20584;-74
2021/09/19 06:42:50;;;;;;;987.50;805.47;;;26.40;45.60;;;;;;4898043;29;20185;-72
2021/09/19 06:45:18;;;;;;;975.63;786.33;;;26.00;45.60;;;;;;4895740;29;20263;-78
2021/09/19 06:47:46;;;;;;;968.60;779.60;;;26.00;46.40;;;;;;4897791;29;20181;-76
2021/09/19 06:50:13;;;;;;;804.47;374.87;;;26.50;46.10;;;;;;4903085;29;20201;-72
2021/09/19 06:52:41;;;;;;;722.10;281.47;;;26.30;46.00;;;;;;4898505;29;20652;-75
2021/09/19 06:55:09;;;;;;;488.60;186.77;;;26.20;46.30;;;;;;4900657;29;20767;-73
2021/09/19 06:57:37;;;;;;;485.80;191.27;;;26.20;46.50;;;;;;4897666;29;20182;-76
2021/09/19 07:00:06;;;;;;;714.73;287.77;;;25.70;46.60;;;;;;4897918;29;20185;-74
2021/09/19 07:02:33;;;;;;;505.47;198.37;;;25.80;47.20;;;;;;4904762;29;20648;-76
2021/09/19 07:05:01;;;;;;;336.40;127.37;;;25.60;47.00;;;;;;4912589;29;20193;-75
2021/09/19 07:07:28;;;;;;;502.40;191.23;;;25.50;47.60;;;;;;4906859;29;20308;-73
2021/09/19 07:09:55;;;;;;;21.93;9.60;;;25.50;47.70;;;;;;4903720;29;20236;-76
2021/09/19 07:12:22;;;;;;;496.67;188.17;;;25.10;47.00;;;;;;4902862;29;20189;-78
2021/09/19 07:14:50;;;;;;;24.57;10.50;;;25.30;47.40;;;;;;4904445;29;20699;-75
2021/09/19 07:17:17;;;;;;;491.77;186.53;;;25.00;47.90;;;;;;4902196;29;20263;-75
2021/09/19 07:19:44;;;;;;;489.93;185.27;;;24.80;48.60;;;;;;4902318;29;20588;-69
2021/09/19 07:22:12;;;;;;;488.13;182.70;;;24.30;49.00;;;;;;4899546;29;20184;-67
2021/09/19 07:24:39;;;;;;;77.97;26.77;;;23.90;49.90;;;;;;4896464;29;20185;-68
2021/09/19 07:27:07;;;;;;;319.57;114.33;;;23.60;50.70;;;;;;4897330;29;20178;-67
2021/09/19 07:29:35;;;;;;;493.03;185.00;;;23.30;51.30;;;;;;4896516;29;20192;-67
2021/09/19 07:32:06;;;;;;;24.70;10.07;;;23.20;51.10;;;;;;4897340;29;20340;-69
2021/09/19 07:34:34;;;;;;;487.47;178.47;;;23.10;51.70;;;;;;4897807;29;20196;-68
2021/09/19 07:37:02;;;;;;;502.80;189.40;;;22.90;51.30;;;;;;4899719;29;20203;-68
2021/09/19 07:39:30;;;;;;;21.50;9.20;;;22.60;51.10;;;;;;4906686;29;20212;-73
2021/09/19 07:41:57;;;;;;;98.67;36.67;;;22.40;51.40;;;;;;4899617;29;20620;-71
2021/09/19 07:44:25;;;;;;;27.77;14.13;;;22.30;51.70;;;;;;4896980;29;20673;-67
2021/09/19 07:46:53;;;;;;;161.07;57.53;;;22.20;52.20;;;;;;4893280;29;20197;-73
2021/09/19 07:49:22;;;;;;;468.50;164.67;;;22.10;51.70;;;;;;4897215;29;20192;-68
2021/09/19 07:51:50;;;;;;;498.97;179.57;;;21.90;51.60;;;;;;4896459;29;20475;-68
2021/09/19 07:54:19;;;;;;;13.73;7.30;;;21.90;52.00;;;;;;4896388;29;20424;-71
2021/09/19 07:56:46;;;;;;;494.97;176.27;;;21.70;52.20;;;;;;4895824;29;20703;-68
2021/09/19 07:59:13;;;;;;;44.87;18.17;;;21.60;52.70;;;;;;4896518;29;20416;-68
2021/09/19 08:01:41;;;;;;;16.00;11.30;;;21.50;52.80;;;;;;4894972;29;20227;-70
2021/09/19 08:04:09;;;;;;;485.33;166.57;;;21.40;53.20;;;;;;4896906;29;20185;-71
2021/09/19 08:06:36;;;;;;;485.90;172.97;;;21.40;53.40;;;;;;4895506;29;20432;-74
2021/09/19 08:09:04;;;;;;;277.13;96.93;;;21.40;53.60;;;;;;4896611;29;20436;-74
2021/09/19 08:11:31;;;;;;;284.17;99.27;;;21.30;54.10;;;;;;4884318;29;20300;-74
2021/09/19 08:14:08;;;;;;;494.90;181.13;;;21.20;54.40;;;;;;4895926;29;20233;-71
2021/09/19 08:16:38;;;;;;;247.37;86.23;;;21.10;54.70;;;;;;4895789;29;20831;-74
2021/09/19 08:19:06;;;;;;;464.00;168.30;;;21.00;55.20;;;;;;4897049;29;20432;-70
2021/09/19 08:21:36;;;;;;;12.43;7.47;;;20.90;56.10;;;;;;4896477;29;20507;-72
2021/09/19 08:24:06;;;;;;;451.23;159.60;;;20.80;55.60;;;;;;4895827;29;20664;-74
2021/09/19 08:26:33;;;;;;;10.20;5.93;;;20.70;55.80;;;;;;4892770;29;20436;-74
2021/09/19 08:29:01;;;;;;;452.53;157.97;;;20.60;55.80;;;;;;4899148;29;20181;-75
2021/09/19 08:31:28;;;;;;;448.83;159.30;;;20.50;56.10;;;;;;4898512;29;20544;-77
2021/09/19 08:33:56;;;;;;;11.03;8.17;;;20.50;55.90;;;;;;4902075;29;20855;-81
2021/09/19 08:36:24;;;;;;;10.63;6.50;;;20.50;55.90;;;;;;4907476;29;20221;-74
2021/09/19 08:38:53;;;;;;;476.37;176.17;;;20.40;56.00;;;;;;4902301;29;20174;-75
2021/09/19 08:41:20;;;;;;;10.13;6.07;;;20.40;55.90;;;;;;4899541;29;20435;-74
2021/09/19 08:43:49;;;;;;;467.90;164.50;;;20.40;55.80;;;;;;4900359;29;20189;-77
2021/09/19 08:46:18;;;;;;;10.23;6.17;;;20.40;55.60;;;;;;4899616;29;20527;-74
2021/09/19 08:48:47;;;;;;;9.83;5.30;;;20.30;54.30;;;;;;4901919;29;20705;-75
2021/09/19 08:51:14;;;;;;;554.60;186.13;;;20.40;54.50;;;;;;4899065;29;20182;-80
2021/09/19 08:53:42;;;;;;;579.73;194.43;;;20.30;54.60;;;;;;4896667;29;20436;-72
2021/09/19 08:56:10;;;;;;;12.77;6.60;;;20.30;54.10;;;;;;4898158;29;20530;-76
2021/09/19 08:58:38;;;;;;;13.43;6.93;;;20.30;54.10;;;;;;4900767;29;20189;-75
2021/09/19 09:01:06;;;;;;;13.00;6.63;;;20.20;54.10;;;;;;4897818;29;20191;-75
2021/09/19 09:03:34;;;;;;;12.50;5.17;;;20.20;54.20;;;;;;4889571;29;20672;-74
2021/09/19 09:06:07;;;;;;;14.40;7.67;;;20.10;54.40;;;;;;4899667;29;20653;-75
2021/09/19 09:08:35;;;;;;;14.40;8.00;;;20.10;54.70;;;;;;4900013;29;20189;-81
2021/09/19 09:11:06;;;;;;;14.70;9.03;;;20.00;54.40;;;;;;4898572;29;20252;-75
2021/09/19 09:13:36;;;;;;;12.93;6.07;;;20.00;54.70;;;;;;4899474;29;20236;-77
2021/09/19 09:16:12;;;;;;;13.13;6.67;;;19.90;54.80;;;;;;4898945;29;20643;-74
2021/09/19 09:18:44;;;;;;;14.93;8.63;;;19.80;54.90;;;;;;4892720;29;20189;-66
2021/09/19 09:21:14;;;;;;;12.33;5.00;;;19.80;54.60;;;;;;4899471;29;20189;-69
2021/09/19 09:23:49;;;;;;;14.63;8.27;;;19.80;55.10;;;;;;4892680;29;20269;-69
2021/09/19 09:26:27;;;;;;;13.93;7.03;;;19.60;55.20;;;;;;4899203;29;20181;-69
2021/09/19 09:29:01;;;;;;;12.70;5.70;;;19.50;55.40;;;;;;4900736;29;20184;-68
2021/09/19 09:31:32;;;;;;;12.90;6.17;;;19.50;55.70;;;;;;4899348;29;20246;-72
2021/09/19 09:34:23;;;;;;;12.50;5.27;;;19.40;55.80;;;;;;4899711;29;20196;-70
2021/09/19 09:36:59;;;;;;;14.03;7.53;;;19.40;56.00;;;;;;4894921;29;20256;-67
2021/09/19 09:39:33;;;;;;;14.10;8.00;;;19.30;56.70;;;;;;4898038;29;20181;-68
2021/09/19 09:42:00;;;;;;;12.90;6.17;;;19.20;56.60;;;;;;4900082;29;20280;-68
2021/09/19 09:44:41;;;;;;;13.10;6.23;;;19.20;56.40;;;;;;4904435;29;20188;-77
2021/09/19 09:47:20;;;;;;;12.70;5.63;;;19.20;56.70;;;;;;4894773;29;20196;-75
2021/09/19 09:49:54;;;;;;;13.00;6.63;;;19.20;56.80;;;;;;4899048;29;20186;-75
2021/09/19 09:52:26;;;;;;;13.57;6.37;;;19.20;56.50;;;;;;4902866;29;20217;-76
2021/09/19 09:55:00;;;;;;;14.17;8.07;;;19.20;56.60;;;;;;4901581;29;20751;-74
2021/09/19 09:57:59;;;;;;;12.57;5.53;;;19.10;56.30;;;;;;4899333;29;20190;-73
2021/09/19 10:00:26;;;;;;;12.03;4.63;;;19.10;57.20;;;;;;4899801;29;20318;-73
2021/09/19 10:02:53;;;;;;;13.40;6.83;;;19.00;57.40;;;;;;4905378;29;20663;-74
2021/09/19 10:05:21;;;;;;;13.40;6.90;;;18.90;57.60;;;;;;4906482;29;20187;-68
2021/09/19 10:07:50;;;;;;;16.20;11.03;;;18.90;57.70;;;;;;4901751;29;20276;-69
2021/09/19 10:10:23;;;;;;;12.67;5.60;;;18.80;57.90;;;;;;4907900;29;20212;-74
2021/09/19 10:12:52;;;;;;;12.83;6.47;;;18.80;58.70;;;;;;4904179;29;20193;-74
2021/09/19 10:15:21;;;;;;;13.70;7.43;;;18.70;58.10;;;;;;4907396;29;20214;-68
2021/09/19 10:17:49;;;;;;;13.57;7.53;;;18.70;58.30;;;;;;4898959;29;20192;-77
2021/09/19 10:20:30;;;;;;;14.30;8.40;;;18.60;58.30;;;;;;4897364;29;20181;-75
2021/09/19 10:23:18;;;;;;;13.33;5.80;;;18.70;58.50;;;;;;4891725;29;20185;-78
2021/09/19 10:26:06;;;;;;;17.50;11.97;;;18.60;58.40;;;;;;4905321;29;20543;-75
2021/09/19 10:28:48;;;;;;;13.07;6.40;;;18.60;58.30;;;;;;4902620;29;20256;-78
2021/09/19 10:31:21;;;;;;;13.93;7.77;;;18.60;58.50;;;;;;4890308;29;20197;-68
2021/09/19 10:33:53;;;;;;;14.80;8.50;;;18.50;58.70;;;;;;4902032;29;20204;-73
2021/09/19 10:36:40;;;;;;;11.93;4.63;;;18.50;58.80;;;;;;4898358;29;20306;-77
2021/09/19 10:39:25;;;;;;;13.77;8.20;;;18.40;58.90;;;;;;4898173;29;20197;-77
2021/09/19 10:42:15;;;;;;;13.13;6.90;;;18.40;59.50;;;;;;4910956;29;20192;-72
2021/09/19 10:44:48;;;;;;;12.23;5.37;;;18.40;59.30;;;;;;4896943;29;20185;-73
2021/09/19 10:47:45;;;;;;;12.77;6.53;;;18.40;59.40;;;;;;4897777;29;20593;-69
2021/09/19 10:50:12;;;;;;;12.73;6.53;;;18.40;59.50;;;;;;4889040;29;20189;-71
2021/09/19 10:52:45;;;;;;;13.07;6.63;;;18.30;59.80;;;;;;4894945;29;20190;-69
2021/09/19 10:55:29;;;;;;;11.90;5.17;;;18.30;60.10;;;;;;4896196;29;20216;-67
2021/09/19 10:58:02;;;;;;;13.40;7.93;;;18.20;60.10;;;;;;4896752;29;20189;-69
2021/09/19 11:00:32;;;;;;;13.23;7.10;;;18.20;60.40;;;;;;4897707;29;20284;-69
2021/09/19 11:03:26;;;;;;;12.97;6.80;;;18.20;60.70;;;;;;4904853;29;20193;-71
2021/09/19 11:05:54;;;;;;;18.47;10.57;;;18.10;60.90;;;;;;4898030;29;20597;-69
2021/09/19 11:08:21;;;;;;;12.37;5.53;;;18.10;61.00;;;;;;4899018;29;20204;-72
2021/09/19 11:10:58;;;;;;;11.97;5.43;;;18.20;60.90;;;;;;4893769;29;20249;-69
2021/09/19 11:13:41;;;;;;;12.63;6.37;;;18.20;61.30;;;;;;4902931;29;20826;-68
2021/09/19 11:16:08;;;;;;;12.90;6.13;;;18.10;61.10;;;;;;4898812;29;20318;-71
2021/09/19 11:18:41;;;;;;;12.57;6.07;;;18.10;61.40;;;;;;4899739;29;20187;-66
2021/09/19 11:21:30;;;;;;;13.20;6.43;;;18.10;61.30;;;;;;4904929;29;20195;-66
2021/09/19 11:24:04;;;;;;;13.20;7.10;;;18.00;61.40;;;;;;4902014;29;20270;-69
2021/09/19 11:26:33;;;;;;;13.30;7.77;;;18.00;61.60;;;;;;4909016;29;20188;-69
2021/09/19 11:29:07;;;;;;;13.73;7.53;;;18.00;61.60;;;;;;4906852;29;20224;-70
2021/09/19 11:31:35;;;;;;;14.23;8.63;;;17.90;61.80;;;;;;4900640;29;20211;-70
2021/09/19 11:34:09;;;;;;;14.37;6.43;;;17.90;61.80;;;;;;4903172;29;20192;-69
2021/09/19 11:36:41;;;;;;;13.50;6.33;;;17.90;61.90;;;;;;4897771;29;20220;-69
2021/09/19 11:39:08;;;;;;;13.23;6.27;;;17.90;62.10;;;;;;4900840;29;20195;-67
2021/09/19 11:41:36;;;;;;;12.70;5.03;;;17.80;62.40;;;;;;4904658;29;20449;-67
2021/09/19 11:44:04;;;;;;;13.87;6.57;;;17.70;62.30;;;;;;4897977;29;20271;-77
2021/09/19 11:46:34;;;;;;;13.77;6.83;;;17.70;62.60;;;;;;4897966;29;20661;-68
2021/09/19 11:49:03;;;;;;;13.67;6.63;;;17.70;62.70;;;;;;4901994;29;20595;-67
2021/09/19 11:51:30;;;;;;;13.30;5.97;;;17.60;62.70;;;;;;4897453;29;20742;-73
2021/09/19 11:53:58;;;;;;;14.10;6.30;;;17.60;62.70;;;;;;4895838;29;20584;-69
2021/09/19 11:56:28;;;;;;;14.67;8.00;;;17.60;63.00;;;;;;4897409;29;20271;-70
2021/09/19 11:58:55;;;;;;;13.13;6.13;;;17.60;63.00;;;;;;4897951;29;20207;-70
2021/09/19 12:01:27;;;;;;;15.17;8.87;;;17.50;63.20;;;;;;4901758;29;20446;-73
2021/09/19 12:04:06;;;;;;;16.93;6.63;;;17.50;63.50;;;;;;4899339;29;20493;-68
2021/09/19 12:06:34;;;;;;;13.73;6.43;;;17.40;64.00;;;;;;4901193;29;20186;-73
2021/09/19 12:09:02;;;;;;;13.63;6.00;;;17.40;64.00;;;;;;4900716;29;20514;-71
2021/09/19 12:11:53;;;;;;;13.83;5.80;;;17.40;64.30;;;;;;4902491;29;20599;-67
2021/09/19 12:14:29;;;;;;;14.23;6.93;;;17.40;64.70;;;;;;4901521;29;20427;-68
2021/09/19 12:17:11;;;;;;;13.10;5.90;;;17.30;64.90;;;;;;4918461;29;20449;-68
2021/09/19 12:19:41;;;;;;;13.30;5.77;;;17.20;65.30;;;;;;4899727;29;20447;-69
2021/09/19 12:22:16;;;;;;;13.40;5.70;;;17.20;65.90;;;;;;4888462;29;20430;-70
2021/09/19 12:24:44;;;;;;;12.57;4.47;;;17.10;65.90;;;;;;4899707;29;20999;-68
2021/09/19 12:27:14;;;;;;;13.17;5.87;;;17.00;67.00;;;;;;4887786;29;20428;-72
2021/09/19 12:29:45;;;;;;;14.00;6.63;;;16.90;67.60;;;;;;4900733;29;20766;-75
2021/09/19 12:32:13;;;;;;;13.13;5.07;;;16.80;68.40;;;;;;4908166;29;20512;-69
2021/09/19 12:34:45;;;;;;;14.33;6.53;;;16.60;68.90;;;;;;4906169;29;20800;-68
2021/09/19 12:37:13;;;;;;;13.93;5.83;;;16.60;69.90;;;;;;4900593;29;20281;-69